Time;durP1;ratioP1;P1;durP2;ratioP2;P2;SDS_P1;SDS_P2;PMS_P1;PMS_P2;Temp;Humidity;BMP_temperature;BMP_pressure;BME280_temperature;BME280_humidity;BME280_pressure;Samples;Min_cycle;Max_cycle;Signal;HPM_P1;HPM_P2
2023/11/07 00:01:41;;;;;;;26.30;23.50;;;8.80;90.90;;;;;;5035154;28;20213;-89
2023/11/07 00:04:10;;;;;;;27.30;24.60;;;8.70;90.90;;;;;;5035048;28;20647;-89
2023/11/07 00:06:37;;;;;;;28.13;25.13;;;8.80;91.00;;;;;;5035381;28;20573;-89
2023/11/07 00:09:03;;;;;;;29.53;26.73;;;8.90;91.00;;;;;;5035215;28;20176;-88
2023/11/07 00:11:29;;;;;;;25.27;22.70;;;8.80;90.80;;;;;;5052850;28;20218;-90
2023/11/07 00:13:54;;;;;;;26.10;23.30;;;8.90;90.90;;;;;;5035026;28;20176;-89
2023/11/07 00:16:20;;;;;;;28.53;25.60;;;8.80;90.80;;;;;;5034881;28;20210;-89
2023/11/07 00:18:46;;;;;;;28.13;25.40;;;8.70;91.00;;;;;;5052936;28;20683;-89
2023/11/07 00:21:13;;;;;;;28.67;25.70;;;8.70;91.20;;;;;;5034947;28;20168;-88
2023/11/07 00:23:38;;;;;;;28.53;25.83;;;8.80;91.10;;;;;;5052597;28;20175;-89
2023/11/07 00:26:04;;;;;;;27.10;24.47;;;8.80;91.00;;;;;;5034751;28;20192;-88
2023/11/07 00:28:30;;;;;;;33.03;25.90;;;8.80;90.90;;;;;;5052625;28;20188;-89
2023/11/07 00:30:56;;;;;;;25.43;22.90;;;8.80;90.90;;;;;;5034762;28;20636;-89
2023/11/07 00:33:21;;;;;;;27.30;24.53;;;8.80;91.00;;;;;;5034815;28;20172;-88
2023/11/07 00:35:47;;;;;;;40.03;36.60;;;8.80;91.00;;;;;;5034784;28;20187;-89
2023/11/07 00:38:12;;;;;;;39.70;36.33;;;8.80;91.00;;;;;;5052509;28;20199;-87
2023/11/07 00:40:38;;;;;;;42.23;38.67;;;8.90;90.90;;;;;;5034706;28;20210;-89
2023/11/07 00:43:03;;;;;;;42.47;38.73;;;8.80;91.00;;;;;;5034626;28;20325;-88
2023/11/07 00:45:29;;;;;;;39.57;36.57;;;8.90;91.00;;;;;;5052410;28;20223;-89
2023/11/07 00:47:56;;;;;;;41.10;37.53;;;8.80;91.00;;;;;;5034916;28;20183;-89
2023/11/07 00:50:22;;;;;;;41.43;37.77;;;8.90;91.00;;;;;;5035194;28;20218;-86
2023/11/07 00:52:47;;;;;;;42.27;38.23;;;9.00;91.00;;;;;;5038304;28;20211;-86
2023/11/07 00:55:13;;;;;;;40.93;37.50;;;9.00;90.90;;;;;;5038932;28;20207;-87
2023/11/07 00:57:38;;;;;;;39.20;35.57;;;8.90;90.90;;;;;;5056683;28;20199;-89
2023/11/07 01:00:05;;;;;;;42.60;38.77;;;8.90;91.00;;;;;;5056153;28;20588;-89
2023/11/07 01:02:30;;;;;;;40.17;36.77;;;8.90;91.00;;;;;;5055810;28;20168;-88
2023/11/07 01:04:56;;;;;;;39.87;36.37;;;8.90;91.00;;;;;;5037951;28;20183;-88
2023/11/07 01:07:21;;;;;;;42.97;39.23;;;8.90;91.00;;;;;;5038161;28;20711;-88
2023/11/07 01:09:47;;;;;;;46.93;42.40;;;8.90;91.10;;;;;;5037906;28;20172;-89
2023/11/07 01:12:13;;;;;;;26.80;24.27;;;8.90;91.20;;;;;;5055707;28;20171;-89
2023/11/07 01:14:39;;;;;;;26.67;24.23;;;8.90;91.20;;;;;;5037907;28;20255;-88
2023/11/07 01:17:04;;;;;;;33.87;27.00;;;8.90;91.00;;;;;;5037713;28;20242;-88
2023/11/07 01:19:30;;;;;;;43.20;39.67;;;8.90;91.10;;;;;;5037732;28;20230;-87
2023/11/07 01:21:55;;;;;;;46.07;42.07;;;8.80;91.10;;;;;;5037724;28;20255;-89
2023/11/07 01:24:21;;;;;;;29.30;26.30;;;8.80;91.30;;;;;;5037572;28;20172;-88
2023/11/07 01:26:47;;;;;;;31.07;27.20;;;8.80;91.30;;;;;;5037606;28;20203;-89
2023/11/07 01:29:13;;;;;;;38.77;35.97;;;8.70;91.50;;;;;;5037537;28;20191;-88
2023/11/07 01:31:39;;;;;;;45.93;41.43;;;8.70;91.50;;;;;;5037447;28;20172;-88
2023/11/07 01:34:05;;;;;;;45.43;41.57;;;8.70;91.50;;;;;;5055196;28;20198;-89
2023/11/07 01:36:30;;;;;;;29.03;26.27;;;8.70;91.50;;;;;;5055215;28;20242;-89
2023/11/07 01:38:56;;;;;;;30.53;27.47;;;8.70;91.60;;;;;;5055673;28;20686;-89
2023/11/07 01:41:22;;;;;;;30.23;27.20;;;8.70;91.70;;;;;;5037465;28;20302;-87
2023/11/07 01:43:47;;;;;;;29.33;26.50;;;8.80;91.60;;;;;;5037701;28;20203;-89
2023/11/07 01:46:14;;;;;;;25.50;23.10;;;8.70;91.50;;;;;;5055093;28;20196;-89
2023/11/07 01:48:40;;;;;;;29.57;25.50;;;8.70;91.70;;;;;;5037112;28;20723;-88
2023/11/07 01:51:06;;;;;;;30.37;26.63;;;8.80;91.40;;;;;;5037167;28;20309;-89
2023/11/07 01:53:33;;;;;;;29.93;26.77;;;8.70;91.50;;;;;;5037660;28;20207;-90
2023/11/07 01:55:59;;;;;;;29.40;26.23;;;8.70;91.60;;;;;;5037175;28;20673;-87
2023/11/07 01:58:25;;;;;;;30.23;27.07;;;8.70;91.60;;;;;;5037021;28;20202;-89
2023/11/07 02:00:53;;;;;;;30.67;27.67;;;8.70;91.50;;;;;;5036845;28;20548;-89
2023/11/07 02:03:20;;;;;;;29.67;26.80;;;8.70;91.50;;;;;;5036714;28;20176;-90
2023/11/07 02:05:46;;;;;;;31.13;27.60;;;8.70;91.60;;;;;;5037192;28;20196;-89
2023/11/07 02:08:11;;;;;;;30.95;27.80;;;8.60;91.70;;;;;;5037237;28;20172;-89
2023/11/07 02:10:37;;;;;;;34.93;27.20;;;8.60;91.80;;;;;;5036780;28;20193;-88
2023/11/07 02:13:03;;;;;;;34.70;28.30;;;8.70;91.60;;;;;;5054791;28;20523;-89
2023/11/07 02:15:31;;;;;;;30.73;27.77;;;8.70;91.50;;;;;;5054538;28;20194;-89
2023/11/07 02:17:57;;;;;;;30.33;26.43;;;8.70;91.50;;;;;;5037113;28;20283;-89
2023/11/07 02:20:23;;;;;;;28.43;25.67;;;8.70;91.40;;;;;;5036610;28;20227;-89
2023/11/07 02:22:54;;;;;;;27.50;25.23;;;8.70;91.30;;;;;;5036583;28;20266;-89
2023/11/07 02:25:19;;;;;;;30.57;27.27;;;8.70;91.50;;;;;;5054247;28;20184;-89
2023/11/07 02:27:45;;;;;;;29.87;27.07;;;8.70;91.20;;;;;;5036298;28;20712;-88
2023/11/07 02:30:12;;;;;;;30.37;26.80;;;8.80;91.30;;;;;;5036341;28;20176;-89
2023/11/07 02:32:39;;;;;;;45.37;40.87;;;8.70;91.30;;;;;;5036351;28;20176;-89
2023/11/07 02:35:05;;;;;;;47.83;43.33;;;8.80;91.40;;;;;;5053992;28;20199;-89
2023/11/07 02:37:31;;;;;;;45.00;41.47;;;8.70;91.40;;;;;;5036133;28;20172;-89
2023/11/07 02:39:56;;;;;;;44.13;40.20;;;8.70;91.40;;;;;;5054248;28;20251;-90
2023/11/07 02:42:22;;;;;;;44.87;40.70;;;8.70;91.40;;;;;;5036260;28;20249;-89
2023/11/07 02:44:48;;;;;;;42.53;38.73;;;8.70;91.30;;;;;;5036068;28;20167;-89
2023/11/07 02:47:14;;;;;;;44.30;40.47;;;8.70;91.40;;;;;;5037360;28;20729;-89
2023/11/07 02:49:39;;;;;;;45.37;40.97;;;8.80;91.20;;;;;;5036414;28;20182;-89
2023/11/07 02:52:05;;;;;;;44.23;40.70;;;8.80;91.00;;;;;;5036070;28;20191;-89
2023/11/07 02:54:30;;;;;;;44.63;40.93;;;8.70;91.00;;;;;;5035931;28;20636;-90
2023/11/07 02:56:56;;;;;;;42.97;39.47;;;8.60;91.50;;;;;;5036435;28;20192;-89
2023/11/07 02:59:21;;;;;;;43.43;39.57;;;8.70;91.40;;;;;;5035770;28;20200;-89
2023/11/07 03:01:50;;;;;;;45.27;40.90;;;8.60;91.30;;;;;;5036360;28;20168;-89
2023/11/07 03:04:17;;;;;;;44.03;40.23;;;8.60;91.40;;;;;;5035789;28;20179;-88
2023/11/07 03:06:43;;;;;;;45.23;41.07;;;8.70;91.40;;;;;;5036047;28;20241;-88
2023/11/07 03:09:10;;;;;;;27.50;24.90;;;8.70;91.50;;;;;;5053440;28;20175;-88
2023/11/07 03:11:35;;;;;;;29.27;26.23;;;8.50;91.50;;;;;;5035646;28;20573;-89
2023/11/07 03:14:01;;;;;;;32.50;29.13;;;8.60;91.50;;;;;;5035067;28;20179;-89
2023/11/07 03:16:27;;;;;;;41.03;37.53;;;8.60;91.50;;;;;;5035554;28;20232;-88
2023/11/07 03:18:52;;;;;;;44.60;40.80;;;8.60;91.50;;;;;;5035407;28;20203;-88
2023/11/07 03:21:18;;;;;;;27.67;24.87;;;8.60;91.50;;;;;;5035543;28;20179;-88
2023/11/07 03:23:45;;;;;;;29.07;26.20;;;8.60;91.60;;;;;;5053233;28;20652;-89
2023/11/07 03:26:10;;;;;;;38.27;34.93;;;8.60;91.60;;;;;;5035212;28;20195;-89
2023/11/07 03:28:36;;;;;;;41.07;37.40;;;8.60;91.50;;;;;;5053247;28;20180;-89
2023/11/07 03:31:02;;;;;;;45.20;41.13;;;8.60;91.50;;;;;;5053153;28;20210;-88
2023/11/07 03:33:27;;;;;;;28.33;25.60;;;8.60;91.60;;;;;;5035417;28;20180;-89
2023/11/07 03:35:53;;;;;;;28.17;25.33;;;8.60;91.70;;;;;;5035306;28;20675;-89
2023/11/07 03:38:19;;;;;;;27.37;24.43;;;8.60;91.70;;;;;;5035219;28;20286;-88
2023/11/07 03:40:45;;;;;;;30.27;26.17;;;8.60;91.50;;;;;;5035400;28;20180;-89
2023/11/07 03:43:12;;;;;;;28.40;25.90;;;8.70;91.50;;;;;;5035402;28;20703;-89
2023/11/07 03:45:38;;;;;;;30.83;27.13;;;8.70;91.60;;;;;;5035423;28;20202;-89
2023/11/07 03:48:04;;;;;;;29.07;26.23;;;8.70;91.60;;;;;;5052902;28;20259;-89
2023/11/07 03:50:30;;;;;;;31.60;27.60;;;8.80;91.50;;;;;;5035602;28;20203;-90
2023/11/07 03:52:56;;;;;;;30.37;26.97;;;8.80;91.50;;;;;;5056397;28;20176;-89
2023/11/07 03:55:21;;;;;;;30.10;27.00;;;8.80;91.40;;;;;;5035901;28;20714;-88
2023/11/07 03:57:47;;;;;;;28.10;25.73;;;8.80;91.40;;;;;;5053029;28;20254;-89
2023/11/07 04:00:13;;;;;;;31.83;27.27;;;8.80;91.30;;;;;;5052719;28;20172;-88
2023/11/07 04:02:39;;;;;;;33.00;26.60;;;8.80;91.30;;;;;;5052903;28;20550;-89
2023/11/07 04:05:05;;;;;;;31.23;26.67;;;8.80;91.50;;;;;;5034996;28;20199;-89
2023/11/07 04:07:30;;;;;;;29.60;26.50;;;8.80;91.50;;;;;;5052913;28;20243;-90
2023/11/07 04:09:56;;;;;;;26.63;24.10;;;8.90;91.40;;;;;;5034955;28;20172;-90
2023/11/07 04:12:22;;;;;;;29.23;26.27;;;8.80;91.50;;;;;;5052695;28;20175;-89
2023/11/07 04:14:48;;;;;;;29.60;26.60;;;8.80;91.40;;;;;;5034995;28;20172;-89
2023/11/07 04:17:15;;;;;;;29.77;26.70;;;8.90;91.30;;;;;;5052763;28;20265;-89
2023/11/07 04:19:41;;;;;;;29.10;26.60;;;8.90;91.20;;;;;;5034890;28;20196;-89
2023/11/07 04:22:07;;;;;;;26.43;23.97;;;8.80;91.30;;;;;;5034929;28;20647;-90
2023/11/07 04:24:37;;;;;;;27.93;25.53;;;8.90;91.30;;;;;;5035786;28;20179;-90
2023/11/07 04:27:07;;;;;;;29.63;26.80;;;8.80;91.30;;;;;;5038674;28;20198;-89
2023/11/07 04:29:33;;;;;;;45.47;41.80;;;8.80;91.20;;;;;;5056680;28;20163;-89
2023/11/07 04:32:01;;;;;;;43.67;40.20;;;8.80;91.20;;;;;;5038669;28;20270;-89
2023/11/07 04:34:27;;;;;;;46.93;42.27;;;8.80;91.30;;;;;;5056354;28;20259;-89
2023/11/07 04:36:56;;;;;;;46.33;42.27;;;8.80;91.20;;;;;;5038476;28;20196;-90
2023/11/07 04:39:22;;;;;;;42.57;39.20;;;8.70;91.30;;;;;;5038408;28;20234;-89
2023/11/07 04:41:47;;;;;;;44.47;40.33;;;8.70;91.40;;;;;;5038333;28;20215;-89
2023/11/07 04:44:13;;;;;;;44.63;40.47;;;8.70;91.40;;;;;;5038375;28;20190;-89
2023/11/07 04:46:39;;;;;;;42.83;38.90;;;8.70;91.50;;;;;;5056184;28;20192;-89
2023/11/07 04:49:05;;;;;;;44.37;40.23;;;8.70;91.70;;;;;;5056155;28;20247;-89
2023/11/07 04:51:31;;;;;;;44.43;40.77;;;8.70;91.60;;;;;;5056116;28;20643;-89
2023/11/07 04:53:57;;;;;;;42.77;39.10;;;8.70;91.60;;;;;;5038204;28;20172;-89
2023/11/07 04:56:23;;;;;;;42.97;39.27;;;8.60;91.60;;;;;;5038117;28;20253;-89
2023/11/07 04:58:49;;;;;;;41.93;37.73;;;8.60;91.80;;;;;;5038095;28;20333;-90
2023/11/07 05:01:15;;;;;;;41.67;38.37;;;8.70;91.90;;;;;;5037963;28;20203;-89
2023/11/07 05:03:41;;;;;;;44.13;39.80;;;8.70;91.80;;;;;;5038000;28;20172;-89
2023/11/07 05:06:07;;;;;;;49.07;44.93;;;8.70;91.80;;;;;;5037955;28;20192;-90
2023/11/07 05:08:33;;;;;;;27.53;24.93;;;8.70;91.80;;;;;;5055867;28;20206;-89
2023/11/07 05:10:59;;;;;;;30.70;27.73;;;8.70;91.80;;;;;;5037937;28;20184;-89
2023/11/07 05:13:24;;;;;;;41.50;37.80;;;8.80;91.80;;;;;;5037787;28;20187;-89
2023/11/07 05:15:50;;;;;;;46.97;43.07;;;8.70;91.80;;;;;;5037742;28;20200;-89
2023/11/07 05:18:15;;;;;;;52.70;48.00;;;8.80;91.90;;;;;;5037728;28;20253;-89
2023/11/07 05:20:44;;;;;;;30.47;27.20;;;8.80;91.70;;;;;;5037787;28;20175;-89
2023/11/07 05:23:10;;;;;;;29.50;26.70;;;8.80;91.80;;;;;;5037726;28;20168;-89
2023/11/07 05:25:35;;;;;;;44.00;40.07;;;8.80;91.80;;;;;;5055320;28;20199;-88
2023/11/07 05:28:02;;;;;;;42.63;39.07;;;8.80;91.90;;;;;;5037788;28;20211;-88
2023/11/07 05:30:28;;;;;;;29.20;26.17;;;8.80;91.80;;;;;;5055314;28;20179;-90
2023/11/07 05:32:54;;;;;;;29.67;26.47;;;8.80;91.80;;;;;;5037459;28;20702;-89
2023/11/07 05:35:19;;;;;;;28.40;25.63;;;8.80;91.80;;;;;;5038113;28;20282;-89
2023/11/07 05:37:45;;;;;;;31.03;27.87;;;8.80;91.80;;;;;;5036602;28;20221;-89
2023/11/07 05:40:13;;;;;;;32.37;29.27;;;8.80;91.70;;;;;;5037410;28;20172;-89
2023/11/07 05:42:42;;;;;;;35.27;28.67;;;8.90;91.80;;;;;;5037626;28;20198;-89
2023/11/07 05:45:08;;;;;;;33.97;30.33;;;9.00;91.70;;;;;;5055069;28;20184;-88
2023/11/07 05:47:36;;;;;;;30.63;27.77;;;9.00;91.70;;;;;;5037503;28;20202;-89
2023/11/07 05:50:04;;;;;;;33.00;30.03;;;9.00;91.70;;;;;;5037195;28;20172;-89
2023/11/07 05:52:29;;;;;;;34.43;29.37;;;9.10;91.60;;;;;;5037134;28;20172;-89
2023/11/07 05:54:55;;;;;;;34.83;28.47;;;9.10;91.50;;;;;;5054747;28;20222;-87
2023/11/07 05:57:21;;;;;;;33.20;30.10;;;9.20;91.30;;;;;;5054865;28;20176;-88
2023/11/07 05:59:46;;;;;;;31.00;28.50;;;9.10;91.40;;;;;;5055121;28;20676;-89
2023/11/07 06:02:12;;;;;;;32.00;29.10;;;9.10;91.50;;;;;;5055132;28;20165;-89
2023/11/07 06:04:39;;;;;;;31.73;27.80;;;9.10;91.50;;;;;;5054887;28;20172;-88
2023/11/07 06:07:05;;;;;;;32.90;29.67;;;9.10;91.50;;;;;;5054590;28;20191;-89
2023/11/07 06:09:31;;;;;;;31.23;28.37;;;9.10;91.50;;;;;;5036791;28;19961;-89
2023/11/07 06:11:56;;;;;;;32.13;28.93;;;9.20;91.40;;;;;;5054704;28;20700;-89
2023/11/07 06:14:23;;;;;;;30.07;27.23;;;9.20;91.20;;;;;;5054461;28;20255;-88
2023/11/07 06:16:49;;;;;;;26.30;23.97;;;9.20;91.20;;;;;;5036706;28;20256;-89
2023/11/07 06:19:15;;;;;;;35.27;30.43;;;9.20;91.10;;;;;;5036998;28;20671;-89
2023/11/07 06:21:40;;;;;;;33.90;30.47;;;9.20;91.10;;;;;;5054505;28;20172;-90
2023/11/07 06:24:06;;;;;;;32.47;28.27;;;9.20;91.20;;;;;;5054536;28;20175;-89
2023/11/07 06:26:33;;;;;;;34.33;28.33;;;9.20;91.10;;;;;;5054318;28;20211;-90
2023/11/07 06:28:58;;;;;;;44.40;40.63;;;9.20;91.10;;;;;;5036663;28;20180;-88
2023/11/07 06:31:25;;;;;;;46.27;41.70;;;9.20;91.20;;;;;;5036396;28;20187;-89
2023/11/07 06:33:51;;;;;;;43.27;39.60;;;9.30;91.10;;;;;;5054300;28;20168;-89
2023/11/07 06:36:16;;;;;;;46.40;41.93;;;9.20;91.30;;;;;;5036290;28;20196;-89
2023/11/07 06:38:42;;;;;;;45.10;41.20;;;9.20;91.30;;;;;;5054262;28;20274;-89
2023/11/07 06:41:07;;;;;;;43.13;39.83;;;9.20;91.30;;;;;;5053965;28;20176;-90
2023/11/07 06:43:35;;;;;;;44.60;40.70;;;9.30;91.30;;;;;;5036272;28;20210;-89
2023/11/07 06:46:01;;;;;;;45.63;41.70;;;9.30;91.30;;;;;;5053838;28;20180;-89
2023/11/07 06:48:28;;;;;;;45.37;41.47;;;9.30;91.30;;;;;;5053064;28;20255;-89
2023/11/07 06:50:54;;;;;;;47.00;41.93;;;9.30;91.20;;;;;;5036031;28;20180;-89
2023/11/07 06:53:20;;;;;;;43.87;39.93;;;9.40;90.90;;;;;;5053798;28;20255;-89
2023/11/07 06:55:46;;;;;;;42.83;38.57;;;9.30;91.00;;;;;;5035993;28;20238;-89
2023/11/07 06:58:11;;;;;;;45.30;41.43;;;9.30;91.10;;;;;;5035906;28;20219;-89
2023/11/07 07:00:38;;;;;;;44.93;41.13;;;9.30;91.20;;;;;;5035979;28;20168;-89
2023/11/07 07:03:04;;;;;;;48.97;44.80;;;9.40;91.10;;;;;;5035931;28;20605;-89
2023/11/07 07:05:29;;;;;;;30.80;28.10;;;9.40;91.20;;;;;;5035792;28;20196;-89
2023/11/07 07:07:55;;;;;;;35.00;31.43;;;9.40;91.10;;;;;;5053542;28;20176;-90
2023/11/07 07:10:22;;;;;;;44.60;40.77;;;9.40;91.00;;;;;;5035903;28;20263;-89
2023/11/07 07:12:47;;;;;;;47.20;43.27;;;9.40;91.10;;;;;;5035687;28;20176;-89
2023/11/07 07:15:13;;;;;;;47.63;43.73;;;9.40;91.00;;;;;;5036308;28;20211;-89
2023/11/07 07:17:39;;;;;;;32.00;28.87;;;9.40;91.00;;;;;;5053359;28;20176;-89
2023/11/07 07:20:11;;;;;;;33.27;30.40;;;9.40;91.10;;;;;;5053564;28;20234;-88
2023/11/07 07:22:39;;;;;;;45.33;41.07;;;9.40;91.00;;;;;;5053732;28;20179;-90
2023/11/07 07:25:05;;;;;;;46.93;42.77;;;9.40;91.00;;;;;;5035610;28;20579;-90
2023/11/07 07:27:33;;;;;;;49.43;45.33;;;9.50;91.00;;;;;;5035518;28;20184;-91
2023/11/07 07:29:59;;;;;;;36.47;32.27;;;9.50;91.10;;;;;;5035461;28;20180;-89
2023/11/07 07:32:26;;;;;;;30.67;28.07;;;9.50;91.10;;;;;;5053246;28;20176;-88
2023/11/07 07:34:52;;;;;;;33.87;30.30;;;9.50;91.10;;;;;;5053320;28;20168;-89
2023/11/07 07:37:20;;;;;;;32.60;29.30;;;9.50;91.00;;;;;;5035257;28;20172;-89
2023/11/07 07:39:50;;;;;;;34.07;30.67;;;9.50;90.90;;;;;;5035357;28;20203;-90
2023/11/07 07:42:17;;;;;;;33.63;30.47;;;9.50;91.00;;;;;;5035256;28;20200;-88
2023/11/07 07:44:43;;;;;;;35.17;30.00;;;9.50;91.00;;;;;;5035339;28;20714;-89
2023/11/07 07:47:09;;;;;;;31.23;28.00;;;9.50;90.90;;;;;;5035366;28;20182;-89
2023/11/07 07:49:36;;;;;;;;;;;9.50;90.70;;;;;;5052356;28;20529;-90
2023/11/07 07:52:02;;;;;;;35.03;31.27;;;9.60;90.70;;;;;;5053049;28;20254;-89
2023/11/07 07:54:29;;;;;;;34.80;27.67;;;9.60;90.80;;;;;;5052949;28;20200;-89
2023/11/07 07:56:56;;;;;;;31.87;29.10;;;9.60;90.80;;;;;;5035503;28;20192;-88
2023/11/07 07:59:24;;;;;;;33.30;29.90;;;9.60;90.60;;;;;;5035757;28;20219;-89
2023/11/07 08:01:55;;;;;;;31.87;28.73;;;9.60;90.50;;;;;;5039226;28;20180;-88
2023/11/07 08:04:25;;;;;;;31.40;28.13;;;9.60;90.40;;;;;;5039673;28;20210;-89
2023/11/07 08:06:51;;;;;;;46.00;41.73;;;9.70;90.40;;;;;;5057325;28;20176;-89
2023/11/07 08:09:22;;;;;;;48.53;44.63;;;9.70;90.60;;;;;;5039019;28;20175;-88
2023/11/07 08:11:50;;;;;;;52.23;47.23;;;9.60;90.40;;;;;;5039094;28;20632;-89
2023/11/07 08:14:16;;;;;;;30.70;27.67;;;9.70;90.40;;;;;;5056887;28;20648;-89
2023/11/07 08:16:45;;;;;;;29.83;27.20;;;9.70;90.30;;;;;;5038974;28;20199;-89
2023/11/07 08:19:12;;;;;;;47.90;43.30;;;9.70;90.40;;;;;;5057077;28;20196;-89
2023/11/07 08:21:38;;;;;;;41.67;38.67;;;9.70;90.40;;;;;;5038905;28;20183;-88
2023/11/07 08:24:05;;;;;;;50.37;45.70;;;9.70;90.20;;;;;;5038945;28;20267;-90
2023/11/07 08:26:33;;;;;;;30.63;27.87;;;9.70;90.40;;;;;;5056500;28;20195;-89
2023/11/07 08:29:00;;;;;;;30.47;27.73;;;9.80;90.30;;;;;;5038900;28;20210;-90
2023/11/07 08:31:26;;;;;;;44.30;40.43;;;9.80;90.40;;;;;;5056484;28;20174;-89
2023/11/07 08:33:52;;;;;;;42.80;39.13;;;9.80;90.30;;;;;;5038624;28;20180;-89
2023/11/07 08:36:17;;;;;;;46.60;42.53;;;9.80;90.30;;;;;;5056336;28;20326;-90
2023/11/07 08:38:46;;;;;;;46.97;43.00;;;9.80;90.40;;;;;;5038546;28;20642;-87
2023/11/07 08:41:11;;;;;;;47.17;43.20;;;9.80;90.30;;;;;;5038448;28;20172;-89
2023/11/07 08:43:37;;;;;;;46.33;42.00;;;9.80;90.10;;;;;;5038437;28;20728;-88
2023/11/07 08:46:03;;;;;;;47.43;43.67;;;9.80;89.90;;;;;;5056237;28;20202;-89
2023/11/07 08:48:28;;;;;;;40.17;36.47;;;9.90;90.00;;;;;;5056433;28;20195;-88
2023/11/07 08:50:54;;;;;;;32.67;29.40;;;9.90;89.90;;;;;;5056634;28;20639;-89
2023/11/07 08:53:20;;;;;;;31.50;28.33;;;9.90;90.10;;;;;;5056647;28;20237;-90
2023/11/07 08:55:49;;;;;;;40.97;37.57;;;9.90;90.00;;;;;;5056115;28;20220;-88
2023/11/07 08:58:15;;;;;;;43.23;39.87;;;10.00;89.70;;;;;;5038119;28;20238;-89
2023/11/07 09:00:43;;;;;;;31.50;28.20;;;10.00;89.90;;;;;;5038129;28;20223;-88
2023/11/07 09:03:08;;;;;;;33.80;28.90;;;10.00;89.80;;;;;;5038778;28;20172;-89
2023/11/07 09:05:34;;;;;;;30.30;27.43;;;10.00;89.80;;;;;;5038087;28;20269;-88
2023/11/07 09:08:02;;;;;;;40.47;36.93;;;10.00;90.00;;;;;;5038081;28;20678;-88
2023/11/07 09:10:28;;;;;;;46.03;41.73;;;10.00;89.80;;;;;;5037791;28;20176;-88
2023/11/07 09:12:54;;;;;;;31.47;28.30;;;10.10;89.70;;;;;;5038019;28;20176;-90
2023/11/07 09:15:20;;;;;;;31.63;28.33;;;10.10;89.70;;;;;;5038196;28;20204;-88
2023/11/07 09:17:45;;;;;;;29.63;26.77;;;10.10;89.80;;;;;;5055692;28;20181;-88
2023/11/07 09:20:14;;;;;;;30.23;27.33;;;10.20;89.50;;;;;;5055658;28;20174;-88
2023/11/07 09:22:41;;;;;;;29.93;27.23;;;10.20;89.30;;;;;;5037717;28;20727;-89
2023/11/07 09:25:07;;;;;;;29.83;26.70;;;10.20;89.60;;;;;;5037725;28;20737;-88
2023/11/07 09:27:33;;;;;;;29.40;26.80;;;10.20;89.50;;;;;;5055549;28;20199;-88
2023/11/07 09:29:59;;;;;;;30.33;27.50;;;10.30;89.40;;;;;;5055557;28;20553;-89
2023/11/07 09:32:26;;;;;;;26.93;24.63;;;10.30;89.10;;;;;;5037616;28;20678;-88
2023/11/07 09:34:52;;;;;;;30.40;27.43;;;10.40;89.00;;;;;;5037423;28;20599;-88
2023/11/07 09:37:17;;;;;;;29.53;26.57;;;10.40;89.00;;;;;;5037487;28;20184;-88
2023/11/07 09:39:43;;;;;;;32.07;27.40;;;10.40;88.80;;;;;;5037451;28;20341;-88
2023/11/07 09:42:09;;;;;;;30.27;27.33;;;10.50;88.70;;;;;;5037446;28;20127;-88
2023/11/07 09:44:38;;;;;;;28.30;25.63;;;10.50;88.90;;;;;;5037289;28;20176;-88
2023/11/07 09:47:05;;;;;;;28.27;25.80;;;10.50;88.70;;;;;;5037223;28;20215;-89
2023/11/07 09:49:34;;;;;;;30.63;27.97;;;10.50;88.80;;;;;;5038073;28;20187;-89
2023/11/07 09:52:04;;;;;;;28.60;26.10;;;10.60;88.70;;;;;;5037431;28;20269;-89
2023/11/07 09:54:32;;;;;;;26.23;23.77;;;10.60;88.40;;;;;;5056972;28;20183;-89
2023/11/07 09:57:03;;;;;;;26.23;24.00;;;10.70;88.20;;;;;;5055170;28;20235;-88
2023/11/07 09:59:36;;;;;;;30.17;26.63;;;10.60;88.20;;;;;;5037239;28;20198;-89
2023/11/07 10:02:07;;;;;;;27.73;25.30;;;10.60;88.50;;;;;;5054957;28;20239;-88
2023/11/07 10:04:34;;;;;;;28.77;26.53;;;10.50;88.20;;;;;;5037134;28;20168;-88
2023/11/07 10:07:00;;;;;;;26.23;23.90;;;10.40;88.20;;;;;;5036761;28;20202;-89
2023/11/07 10:09:26;;;;;;;26.27;24.17;;;10.30;88.50;;;;;;5054643;28;20172;-89
2023/11/07 10:11:53;;;;;;;26.10;23.73;;;10.20;88.50;;;;;;5036862;28;20561;-88
2023/11/07 10:14:20;;;;;;;24.10;22.20;;;10.20;88.60;;;;;;5036951;28;20172;-87
2023/11/07 10:16:52;;;;;;;25.23;23.00;;;10.10;88.30;;;;;;5054494;28;20199;-89
2023/11/07 10:19:19;;;;;;;37.47;34.30;;;10.10;88.50;;;;;;5036672;28;20192;-89
2023/11/07 10:21:45;;;;;;;35.63;33.13;;;10.00;88.60;;;;;;5054467;28;20187;-89
2023/11/07 10:24:12;;;;;;;36.33;33.33;;;10.00;88.70;;;;;;5036452;28;20172;-90
2023/11/07 10:27:00;;;;;;;34.83;31.87;;;10.00;88.50;;;;;;5054359;28;20184;-88
2023/11/07 10:29:27;;;;;;;33.50;31.20;;;9.90;88.50;;;;;;5054333;28;20174;-88
2023/11/07 10:32:02;;;;;;;35.83;33.10;;;9.90;88.50;;;;;;5036389;28;20180;-87
2023/11/07 10:34:28;;;;;;;32.70;30.53;;;9.90;88.50;;;;;;5054248;28;20205;-89
2023/11/07 10:36:54;;;;;;;34.50;31.77;;;9.90;89.00;;;;;;5054073;28;20275;-89
2023/11/07 10:39:25;;;;;;;34.13;31.57;;;9.90;88.90;;;;;;5053952;28;20778;-89
2023/11/07 10:41:51;;;;;;;33.30;30.53;;;10.00;88.90;;;;;;5036146;28;20190;-89
2023/11/07 10:44:25;;;;;;;34.60;31.83;;;9.90;88.80;;;;;;5036312;28;20222;-90
2023/11/07 10:46:53;;;;;;;33.87;31.67;;;10.00;89.10;;;;;;5036135;28;20198;-89
2023/11/07 10:49:19;;;;;;;35.43;32.83;;;10.00;89.30;;;;;;5035984;28;20180;-87
2023/11/07 10:51:45;;;;;;;21.67;20.07;;;10.00;89.50;;;;;;5036103;28;20179;-90
2023/11/07 10:54:11;;;;;;;22.83;20.93;;;10.00;89.80;;;;;;5036042;28;20182;-89
2023/11/07 10:56:46;;;;;;;22.90;20.97;;;10.00;90.10;;;;;;5035865;28;20226;-89
2023/11/07 10:59:24;;;;;;;36.40;33.93;;;10.10;90.00;;;;;;5037713;28;20194;-91
2023/11/07 11:01:50;;;;;;;36.20;33.03;;;10.20;90.40;;;;;;5041969;28;20187;-91
2023/11/07 11:04:22;;;;;;;23.83;22.07;;;10.20;90.50;;;;;;5041316;28;20230;-90
2023/11/07 11:07:09;;;;;;;25.43;23.17;;;10.20;90.30;;;;;;5038745;28;20675;-89
2023/11/07 11:09:35;;;;;;;25.17;23.23;;;10.30;90.40;;;;;;5035680;28;20182;-89
2023/11/07 11:12:06;;;;;;;25.40;23.40;;;10.30;90.50;;;;;;5039310;28;20652;-92
2023/11/07 11:14:32;;;;;;;25.23;23.00;;;10.40;90.70;;;;;;5035819;28;20263;-90
2023/11/07 11:17:00;;;;;;;24.63;22.33;;;10.50;90.70;;;;;;5035677;28;20281;-90
2023/11/07 11:19:50;;;;;;;25.53;23.40;;;10.50;90.40;;;;;;5035508;28;20200;-89
2023/11/07 11:22:20;;;;;;;26.33;23.67;;;10.50;90.10;;;;;;5035518;28;20164;-90
2023/11/07 11:25:10;;;;;;;25.07;23.27;;;10.60;89.90;;;;;;5035567;28;20540;-89
2023/11/07 11:28:00;;;;;;;25.60;23.47;;;10.50;89.40;;;;;;5036470;28;20164;-90
2023/11/07 11:30:31;;;;;;;26.20;24.10;;;10.60;89.30;;;;;;5035668;28;20550;-89
2023/11/07 11:33:15;;;;;;;25.47;23.40;;;10.90;89.30;;;;;;5035719;28;20618;-89
2023/11/07 11:35:43;;;;;;;25.23;23.20;;;11.20;88.20;;;;;;5035103;28;20203;-90
2023/11/07 11:38:16;;;;;;;24.43;22.13;;;10.90;87.20;;;;;;5053701;28;20283;-90
2023/11/07 11:40:59;;;;;;;24.77;22.87;;;10.80;87.60;;;;;;5035660;28;20263;-91
2023/11/07 11:43:26;;;;;;;25.63;22.83;;;10.80;88.10;;;;;;5053220;28;20184;-89
2023/11/07 11:45:55;;;;;;;24.70;22.57;;;10.90;88.10;;;;;;5036131;28;20211;-89
2023/11/07 11:48:49;;;;;;;24.57;22.63;;;11.20;88.10;;;;;;5035247;28;20532;-89
2023/11/07 11:51:38;;;;;;;22.47;20.87;;;11.50;87.10;;;;;;5035153;28;20202;-89
2023/11/07 11:54:06;;;;;;;23.40;21.43;;;11.50;86.20;;;;;;5035276;28;20175;-89
2023/11/07 11:56:33;;;;;;;23.23;21.43;;;11.70;85.60;;;;;;5035070;28;20242;-89
2023/11/07 11:59:12;;;;;;;24.57;21.17;;;11.50;83.60;;;;;;5052982;28;20215;-90
2023/11/07 12:01:50;;;;;;;23.23;21.23;;;11.60;85.00;;;;;;5040126;28;20631;-90
2023/11/07 12:04:35;;;;;;;22.57;20.60;;;11.70;84.20;;;;;;5042160;28;20164;-91
2023/11/07 12:07:22;;;;;;;23.37;21.43;;;11.80;83.60;;;;;;5045841;28;20173;-92
2023/11/07 12:09:52;;;;;;;23.63;21.20;;;11.90;83.90;;;;;;5039583;28;20255;-92
2023/11/07 12:12:18;;;;;;;35.17;32.77;;;12.00;83.60;;;;;;5039412;28;20165;-93
2023/11/07 12:14:58;;;;;;;26.30;24.17;;;11.80;83.70;;;;;;5039776;28;20659;-93
2023/11/07 12:17:26;;;;;;;24.57;22.67;;;11.80;83.60;;;;;;5038809;28;20248;-92
2023/11/07 12:20:07;;;;;;;33.70;31.20;;;11.80;83.60;;;;;;5039453;28;20200;-92
2023/11/07 12:22:35;;;;;;;36.03;33.47;;;11.80;83.80;;;;;;5039193;28;20259;-91
2023/11/07 12:25:19;;;;;;;34.60;32.20;;;11.80;84.10;;;;;;5043682;28;20179;-93
2023/11/07 12:28:05;;;;;;;35.70;33.10;;;12.00;84.20;;;;;;5040568;28;20160;-93
2023/11/07 12:30:34;;;;;;;36.90;33.67;;;11.70;83.70;;;;;;5039820;28;20176;-92
2023/11/07 12:33:01;;;;;;;35.13;32.37;;;11.80;83.40;;;;;;5039084;28;20640;-92
2023/11/07 12:35:27;;;;;;;33.90;31.23;;;11.80;83.00;;;;;;5038533;28;20192;-92
2023/11/07 12:37:54;;;;;;;36.43;33.37;;;11.50;83.40;;;;;;5039839;28;20251;-92